AIRPORT ID: 3CO4

DATE: 2024-05-27 ZULU TIME: 19.55 LOCAL TIME: 13.55


METAR 3CO4 271955Z AUTO 27014G20KT 10SM 20/M04 A3028

ALTIMETER: A3028 Q1025

DENSITY ALT: 9800 Ft

WIND DIRECT: 280

WIND SPEED: 14 Gust

WIND CONDITIONS:

VISIBILTY: 10SM 9999M

TEMPERATURE: 68 F 20 C

DEW POINT: 25 F -4 C

HUMID: 20%

LCL: Above 5,000 feet

RADIO CHECK: 0

ADVISARIES: 0

GREETINGS: 0

CONVERSATIONS: 0